createdAt,value
2019-06-15T00:00:19.952Z,16.79
2019-06-15T00:01:19.907Z,16.74
2019-06-15T00:02:19.900Z,16.78
2019-06-15T00:03:19.844Z,16.75
2019-06-15T00:04:19.761Z,16.71
2019-06-15T00:05:19.713Z,16.69
2019-06-15T00:06:19.670Z,16.78
2019-06-15T00:07:19.648Z,16.69
2019-06-15T00:08:19.569Z,16.71
2019-06-15T00:09:19.526Z,16.78
2019-06-15T00:10:19.497Z,16.75
2019-06-15T00:11:19.425Z,16.60
2019-06-15T00:12:19.376Z,16.69
2019-06-15T00:13:19.334Z,16.69
2019-06-15T00:14:19.279Z,16.69
2019-06-15T00:15:19.264Z,16.72
2019-06-15T00:16:19.181Z,16.74
2019-06-15T00:17:19.137Z,16.74
2019-06-15T00:18:19.087Z,16.79
2019-06-15T00:19:19.040Z,16.81
2019-06-15T00:20:19.023Z,16.78
2019-06-15T00:21:18.943Z,16.75
2019-06-15T00:22:18.894Z,16.78
2019-06-15T00:23:18.845Z,16.81
2019-06-15T00:24:18.798Z,16.78
2019-06-15T00:25:18.785Z,16.79
2019-06-15T00:26:18.700Z,16.79
2019-06-15T00:27:18.652Z,16.76
2019-06-15T00:28:18.744Z,16.72
2019-06-15T00:29:18.562Z,16.79
2019-06-15T00:30:18.547Z,16.78
2019-06-15T00:31:18.457Z,16.75
2019-06-15T00:32:18.414Z,16.79
2019-06-15T00:33:18.365Z,16.79
2019-06-15T00:34:18.327Z,16.76
2019-06-15T00:35:18.305Z,16.83
2019-06-15T00:36:18.217Z,16.75
2019-06-15T00:37:18.168Z,16.79
2019-06-15T00:38:18.121Z,16.78
2019-06-15T00:39:18.106Z,16.75
2019-06-15T00:40:18.024Z,16.69
2019-06-15T00:41:17.981Z,16.72
2019-06-15T00:42:17.927Z,16.72
2019-06-15T00:43:17.880Z,16.72
2019-06-15T00:44:17.861Z,16.72
2019-06-15T00:45:17.787Z,16.69
2019-06-15T00:46:17.734Z,16.68
2019-06-15T00:47:17.688Z,16.68
2019-06-15T00:48:17.641Z,16.66
2019-06-15T00:49:17.742Z,16.66
2019-06-15T00:50:17.541Z,16.65
2019-06-15T00:51:17.496Z,16.69
2019-06-15T00:52:17.445Z,16.65
2019-06-15T00:53:17.398Z,16.64
2019-06-15T00:54:17.378Z,16.69
2019-06-15T00:55:17.301Z,16.66
2019-06-15T00:56:17.251Z,16.66
2019-06-15T00:57:17.205Z,16.66
2019-06-15T00:58:17.156Z,16.69
2019-06-15T00:59:17.138Z,16.56
2019-06-15T01:00:17.058Z,16.54
2019-06-15T01:01:17.058Z,16.60
2019-06-15T01:02:16.961Z,16.64
2019-06-15T01:03:16.924Z,16.61
2019-06-15T01:04:16.869Z,16.58
2019-06-15T01:05:16.822Z,16.72
2019-06-15T01:06:16.812Z,16.64
2019-06-15T01:07:16.719Z,16.64
2019-06-15T01:08:16.672Z,16.65
2019-06-15T01:09:16.623Z,16.61
2019-06-15T01:10:16.573Z,16.65
2019-06-15T01:11:16.558Z,16.68
2019-06-15T01:12:16.478Z,16.65
2019-06-15T01:13:16.461Z,16.71
2019-06-15T01:14:16.381Z,16.71
2019-06-15T01:15:16.369Z,16.71
2019-06-15T01:16:16.289Z,16.68
2019-06-15T01:17:16.238Z,16.72
2019-06-15T01:18:16.187Z,16.64
2019-06-15T01:19:16.142Z,16.65
2019-06-15T01:20:16.128Z,16.68
2019-06-15T01:21:16.048Z,16.53
2019-06-15T01:22:16.029Z,16.58
2019-06-15T01:23:15.945Z,16.56
2019-06-15T01:24:15.898Z,16.58
2019-06-15T01:25:15.849Z,16.58
2019-06-15T01:26:15.802Z,16.57
2019-06-15T01:27:15.780Z,16.58
2019-06-15T01:28:15.704Z,16.56
2019-06-15T01:29:15.655Z,16.54
2019-06-15T01:30:15.607Z,16.64
2019-06-15T01:31:15.559Z,16.66
2019-06-15T01:32:15.540Z,16.64
2019-06-15T01:33:15.462Z,16.64
2019-06-15T01:34:15.452Z,16.68
2019-06-15T01:35:15.402Z,16.69
2019-06-15T01:36:15.316Z,16.68
2019-06-15T01:37:15.273Z,16.74
2019-06-15T01:38:15.219Z,16.76
2019-06-15T01:39:15.171Z,16.76
2019-06-15T01:40:15.154Z,16.76
2019-06-15T01:41:15.073Z,16.76
2019-06-15T01:42:15.026Z,16.79
2019-06-15T01:43:14.998Z,16.74
2019-06-15T01:44:14.932Z,16.74
2019-06-15T01:45:14.909Z,16.78
2019-06-15T01:46:14.833Z,16.79
2019-06-15T01:47:14.782Z,16.81
2019-06-15T01:48:14.735Z,16.75
2019-06-15T01:49:14.690Z,16.75
2019-06-15T01:50:14.709Z,16.79
2019-06-15T01:51:14.595Z,16.78
2019-06-15T01:52:14.540Z,16.75
2019-06-15T01:53:14.491Z,16.86
2019-06-15T01:54:14.447Z,16.89
2019-06-15T01:55:20.906Z,16.81
2019-06-15T01:56:14.345Z,16.83
2019-06-15T01:57:14.298Z,16.78
2019-06-15T01:58:14.282Z,16.76
2019-06-15T01:59:14.208Z,16.83
2019-06-15T02:00:14.153Z,16.72
2019-06-15T02:01:14.138Z,16.81
2019-06-15T02:02:14.060Z,16.83
2019-06-15T02:03:14.009Z,16.75
2019-06-15T02:04:13.981Z,16.72
2019-06-15T02:05:13.932Z,16.81
2019-06-15T02:06:13.892Z,16.87
2019-06-15T02:07:13.813Z,16.74
2019-06-15T02:08:13.762Z,16.79
2019-06-15T02:09:13.727Z,16.75
2019-06-15T02:10:13.667Z,16.79
2019-06-15T02:11:13.660Z,16.83
2019-06-15T02:12:13.570Z,16.83
2019-06-15T02:13:13.521Z,16.86
2019-06-15T02:14:13.472Z,16.81
2019-06-15T02:15:13.428Z,16.87
2019-06-15T02:16:13.408Z,16.84
2019-06-15T02:17:13.356Z,16.90
2019-06-15T02:18:13.278Z,16.93
2019-06-15T02:19:13.233Z,16.91
2019-06-15T02:20:13.221Z,16.89
2019-06-15T02:21:13.146Z,16.87
2019-06-15T02:22:13.089Z,16.96
2019-06-15T02:23:13.035Z,16.90
2019-06-15T02:24:13.014Z,16.86
2019-06-15T02:25:12.968Z,16.87
2019-06-15T02:26:12.897Z,16.87
2019-06-15T02:27:12.885Z,16.84
2019-06-15T02:28:12.793Z,16.90
2019-06-15T02:29:12.751Z,16.91
2019-06-15T02:30:12.697Z,16.86
2019-06-15T02:31:12.696Z,16.93
2019-06-15T02:32:12.598Z,16.99
2019-06-15T02:33:12.548Z,17.01
2019-06-15T02:34:12.502Z,16.83
2019-06-15T02:35:12.460Z,16.99
2019-06-15T02:36:12.436Z,16.97
2019-06-15T02:37:12.361Z,16.94
2019-06-15T02:38:12.311Z,16.89
2019-06-15T02:39:12.260Z,16.89
2019-06-15T02:40:12.243Z,16.86
2019-06-15T02:41:12.167Z,16.89
2019-06-15T02:42:12.124Z,16.84
2019-06-15T02:43:12.102Z,16.72
2019-06-15T02:44:12.016Z,16.78
2019-06-15T02:45:11.973Z,16.72
2019-06-15T02:46:11.921Z,16.75
2019-06-15T02:47:11.905Z,16.74
2019-06-15T02:48:11.854Z,16.72
2019-06-15T02:49:11.780Z,16.72
2019-06-15T02:50:11.759Z,16.74
2019-06-15T02:51:11.677Z,16.71
2019-06-15T02:52:11.631Z,16.69
2019-06-15T02:53:11.615Z,16.68
2019-06-15T02:54:11.532Z,16.69
2019-06-15T02:55:11.484Z,16.72
2019-06-15T02:56:11.465Z,16.74
2019-06-15T02:57:11.391Z,16.69
2019-06-15T02:58:11.368Z,16.72
2019-06-15T02:59:11.314Z,16.74
2019-06-15T03:00:11.262Z,16.76
2019-06-15T03:01:11.192Z,16.76
2019-06-15T03:02:11.143Z,16.81
2019-06-15T03:03:11.128Z,16.81
2019-06-15T03:04:11.052Z,16.75
2019-06-15T03:05:10.999Z,16.83
2019-06-15T03:06:10.950Z,16.75
2019-06-15T03:07:10.935Z,16.84
2019-06-15T03:08:10.857Z,16.86
2019-06-15T03:09:10.805Z,16.87
2019-06-15T03:10:10.757Z,16.87
2019-06-15T03:11:10.714Z,16.86
2019-06-15T03:12:10.702Z,16.91
2019-06-15T03:13:10.613Z,16.84
2019-06-15T03:14:10.567Z,16.94
2019-06-15T03:15:10.516Z,16.99
2019-06-15T03:16:10.466Z,17.04
2019-06-15T03:17:10.450Z,17.05
2019-06-15T03:18:10.399Z,16.94
2019-06-15T03:19:10.323Z,16.90
2019-06-15T03:20:10.271Z,17.06
2019-06-15T03:21:10.226Z,16.96
2019-06-15T03:22:10.173Z,17.01
2019-06-15T03:23:10.159Z,16.90
2019-06-15T03:24:10.079Z,16.87
2019-06-15T03:25:10.064Z,16.87
2019-06-15T03:26:09.992Z,16.86
2019-06-15T03:27:09.937Z,16.81
2019-06-15T03:28:09.909Z,16.83
2019-06-15T03:29:09.838Z,16.71
2019-06-15T03:30:09.792Z,16.83
2019-06-15T03:31:09.740Z,16.76
2019-06-15T03:32:09.696Z,16.83
2019-06-15T03:33:09.676Z,16.81
2019-06-15T03:34:09.593Z,16.78
2019-06-15T03:35:09.546Z,16.86
2019-06-15T03:36:09.502Z,16.83
2019-06-15T03:37:09.447Z,16.86
2019-06-15T03:38:09.432Z,16.97
2019-06-15T03:39:09.359Z,16.99
2019-06-15T03:40:09.307Z,16.94
2019-06-15T03:41:09.256Z,16.99
2019-06-15T03:42:09.214Z,16.81
2019-06-15T03:43:09.192Z,16.86
2019-06-15T03:44:09.107Z,16.87
2019-06-15T03:45:09.070Z,16.83
2019-06-15T03:46:09.043Z,17.04
2019-06-15T03:47:08.963Z,17.31
2019-06-15T03:48:08.958Z,17.46
2019-06-15T03:49:08.877Z,17.60
2019-06-15T03:50:08.819Z,17.68
2019-06-15T03:51:08.770Z,17.83
2019-06-15T03:52:08.764Z,17.95
2019-06-15T03:53:08.711Z,18.05
2019-06-15T03:54:08.625Z,18.11
2019-06-15T03:55:08.575Z,18.28
2019-06-15T03:56:20.519Z,18.40
2019-06-15T03:57:08.477Z,18.40
2019-06-15T03:58:08.461Z,18.44
2019-06-15T03:59:08.384Z,18.50
2019-06-15T04:00:08.335Z,18.49
2019-06-15T04:01:08.294Z,18.60
2019-06-15T04:02:08.237Z,18.62
2019-06-15T04:03:08.229Z,18.74
2019-06-15T04:04:08.140Z,18.73
2019-06-15T04:05:08.093Z,18.78
2019-06-15T04:06:08.056Z,18.81
2019-06-15T04:07:07.997Z,18.80
2019-06-15T04:08:07.978Z,18.84
2019-06-15T04:09:07.899Z,18.78
2019-06-15T04:10:07.860Z,18.92
2019-06-15T04:11:07.805Z,18.83
2019-06-15T04:12:07.756Z,18.98
2019-06-15T04:13:07.740Z,19.19
2019-06-15T04:14:07.660Z,19.30
2019-06-15T04:15:07.615Z,19.37
2019-06-15T04:16:07.566Z,19.45
2019-06-15T04:17:07.518Z,19.56
2019-06-15T04:18:07.500Z,19.59
2019-06-15T04:19:07.421Z,19.81
2019-06-15T04:20:07.372Z,19.92
2019-06-15T04:21:07.327Z,19.91
2019-06-15T04:22:07.279Z,20.03
2019-06-15T04:23:07.271Z,20.03
2019-06-15T04:24:07.185Z,20.13
2019-06-15T04:25:07.136Z,20.19
2019-06-15T04:26:07.087Z,20.24
2019-06-15T04:27:07.075Z,20.26
2019-06-15T04:28:06.994Z,20.22
2019-06-15T04:29:06.947Z,20.11
2019-06-15T04:30:06.901Z,20.00
2019-06-15T04:31:06.885Z,19.92
2019-06-15T04:32:06.804Z,19.92
2019-06-15T04:33:06.758Z,20.04
2019-06-15T04:34:06.711Z,20.22
2019-06-15T04:35:06.666Z,20.26
2019-06-15T04:36:06.649Z,20.31
2019-06-15T04:37:06.577Z,20.36
2019-06-15T04:38:06.525Z,20.31
2019-06-15T04:39:06.514Z,20.47
2019-06-15T04:40:06.427Z,20.50
2019-06-15T04:41:06.408Z,20.67
2019-06-15T04:42:06.337Z,20.77
2019-06-15T04:43:06.289Z,20.93
2019-06-15T04:44:06.239Z,20.95
2019-06-15T04:45:06.206Z,21.06
2019-06-15T04:46:06.187Z,21.00
2019-06-15T04:47:06.098Z,21.03
2019-06-15T04:48:06.054Z,20.96
2019-06-15T04:49:06.046Z,21.00
2019-06-15T04:50:05.964Z,20.97
2019-06-15T04:51:05.913Z,20.96
2019-06-15T04:52:05.872Z,20.87
2019-06-15T04:53:05.820Z,20.93
2019-06-15T04:54:05.804Z,20.92
2019-06-15T04:55:05.729Z,20.92
2019-06-15T04:56:05.681Z,20.93
2019-06-15T04:57:05.645Z,20.87
2019-06-15T04:58:05.588Z,20.90
2019-06-15T04:59:05.582Z,20.92
2019-06-15T05:00:05.495Z,20.96
2019-06-15T05:01:05.450Z,20.93
2019-06-15T05:02:05.401Z,20.95
2019-06-15T05:03:05.381Z,20.95
2019-06-15T05:04:05.342Z,21.02
2019-06-15T05:05:05.265Z,21.02
2019-06-15T05:06:05.218Z,21.00
2019-06-15T05:07:05.193Z,21.03
2019-06-15T05:08:05.173Z,21.09
2019-06-15T05:09:05.081Z,21.05
2019-06-15T05:10:05.033Z,21.24
2019-06-15T05:11:04.984Z,21.18
2019-06-15T05:12:04.939Z,21.21
2019-06-15T05:13:04.926Z,21.21
2019-06-15T05:14:04.849Z,21.17
2019-06-15T05:15:04.833Z,21.15
2019-06-15T05:16:04.777Z,21.18
2019-06-15T05:17:04.707Z,21.20
2019-06-15T05:18:04.666Z,21.18
2019-06-15T05:19:04.619Z,21.15
2019-06-15T05:20:04.571Z,21.17
2019-06-15T05:21:04.556Z,21.21
2019-06-15T05:22:04.484Z,21.18
2019-06-15T05:23:04.433Z,21.21
2019-06-15T05:24:04.388Z,21.30
2019-06-15T05:25:04.339Z,21.32
2019-06-15T05:26:04.326Z,21.39
2019-06-15T05:27:06.619Z,21.37
2019-06-15T05:28:04.201Z,21.35
2019-06-15T05:29:04.157Z,21.35
2019-06-15T05:30:04.117Z,21.37
2019-06-15T05:31:04.095Z,21.42
2019-06-15T05:32:04.019Z,21.35
2019-06-15T05:33:03.974Z,21.45
2019-06-15T05:34:03.927Z,21.36
2019-06-15T05:35:03.883Z,21.37
2019-06-15T05:36:03.870Z,21.33
2019-06-15T05:37:03.812Z,21.35
2019-06-15T05:38:03.744Z,21.33
2019-06-15T05:39:03.699Z,21.33
2019-06-15T05:40:03.653Z,21.37
2019-06-15T05:41:03.635Z,21.39
2019-06-15T05:42:03.592Z,21.42
2019-06-15T05:43:03.517Z,21.40
2019-06-15T05:44:03.469Z,21.37
2019-06-15T05:45:03.422Z,21.36
2019-06-15T05:46:03.378Z,21.39
2019-06-15T05:47:03.363Z,21.33
2019-06-15T05:48:03.335Z,21.36
2019-06-15T05:49:03.246Z,21.36
2019-06-15T05:50:03.195Z,21.37
2019-06-15T05:51:03.153Z,21.37
2019-06-15T05:52:03.104Z,21.30
2019-06-15T05:53:03.088Z,21.37
2019-06-15T05:54:03.020Z,21.33
2019-06-15T05:55:02.969Z,21.43
2019-06-15T05:56:02.968Z,21.40
2019-06-15T05:57:02.879Z,21.37
2019-06-15T05:58:02.830Z,21.30
2019-06-15T05:59:02.798Z,21.45
2019-06-15T06:00:03.022Z,21.33
2019-06-15T06:01:02.731Z,21.32
2019-06-15T06:02:02.696Z,21.40
2019-06-15T06:03:02.606Z,21.39
2019-06-15T06:04:02.562Z,21.29
2019-06-15T06:05:02.512Z,21.27
2019-06-15T06:06:02.479Z,21.21
2019-06-15T06:07:02.458Z,21.11
2019-06-15T06:08:02.380Z,21.14
2019-06-15T06:09:02.355Z,21.12
2019-06-15T06:10:02.339Z,21.12
2019-06-15T06:11:02.242Z,21.15
2019-06-15T06:12:02.194Z,21.03
2019-06-15T06:13:02.149Z,21.03
2019-06-15T06:14:02.107Z,20.97
2019-06-15T06:15:02.101Z,20.93
2019-06-15T06:16:02.011Z,20.96
2019-06-15T06:17:01.966Z,20.81
2019-06-15T06:18:01.929Z,20.75
2019-06-15T06:19:01.878Z,20.72
2019-06-15T06:20:01.863Z,20.69
2019-06-15T06:21:01.784Z,20.62
2019-06-15T06:22:01.739Z,20.60
2019-06-15T06:23:01.710Z,20.58
2019-06-15T06:24:01.651Z,20.43
2019-06-15T06:25:01.686Z,20.36
2019-06-15T06:26:01.594Z,20.41
2019-06-15T06:27:01.512Z,20.34
2019-06-15T06:28:01.466Z,20.24
2019-06-15T06:29:01.455Z,20.13
2019-06-15T06:30:01.388Z,19.89
2019-06-15T06:31:01.371Z,19.82
2019-06-15T06:32:01.288Z,19.81
2019-06-15T06:33:01.238Z,19.73
2019-06-15T06:34:01.196Z,19.73
2019-06-15T06:35:01.151Z,19.73
2019-06-15T06:36:01.190Z,19.70
2019-06-15T06:37:01.102Z,19.70
2019-06-15T06:38:01.147Z,19.69
2019-06-15T06:39:00.971Z,19.76
2019-06-15T06:40:00.918Z,19.62
2019-06-15T06:41:00.872Z,19.62
2019-06-15T06:42:00.857Z,19.59
2019-06-15T06:43:00.782Z,19.54
2019-06-15T06:44:00.732Z,19.45
2019-06-15T06:45:00.688Z,19.45
2019-06-15T06:46:00.644Z,19.40
2019-06-15T06:47:00.626Z,19.30
2019-06-15T06:48:00.552Z,19.33
2019-06-15T06:49:00.503Z,19.26
2019-06-15T06:50:00.496Z,19.31
2019-06-15T06:51:00.415Z,19.34
2019-06-15T06:52:00.520Z,19.24
2019-06-15T06:53:00.317Z,19.21
2019-06-15T06:54:00.302Z,19.27
2019-06-15T06:55:00.224Z,19.29
2019-06-15T06:56:00.177Z,19.30
2019-06-15T06:57:00.327Z,19.15
2019-06-15T06:58:00.085Z,19.19
2019-06-15T06:59:00.071Z,19.27
2019-06-15T06:59:59.996Z,19.22
2019-06-15T07:00:59.946Z,19.24
2019-06-15T07:01:59.939Z,19.33
2019-06-15T07:02:59.855Z,19.39
2019-06-15T07:03:59.808Z,19.41
2019-06-15T07:04:59.764Z,19.44
2019-06-15T07:05:59.730Z,19.51
2019-06-15T07:06:59.704Z,19.45
2019-06-15T07:07:59.620Z,19.45
2019-06-15T07:08:59.604Z,19.37
2019-06-15T07:09:59.527Z,19.45
2019-06-15T07:10:59.490Z,19.49
2019-06-15T07:11:59.435Z,19.39
2019-06-15T07:12:59.388Z,19.49
2019-06-15T07:13:59.366Z,19.44
2019-06-15T07:14:59.297Z,19.51
2019-06-15T07:15:59.249Z,19.55
2019-06-15T07:16:59.242Z,19.66
2019-06-15T07:17:59.202Z,19.58
2019-06-15T07:18:59.117Z,19.69
2019-06-15T07:19:59.066Z,19.74
2019-06-15T07:20:59.018Z,19.84
2019-06-15T07:21:58.973Z,19.76
2019-06-15T07:22:58.969Z,19.82
2019-06-15T07:23:58.879Z,19.94
2019-06-15T07:24:58.834Z,19.95
2019-06-15T07:25:58.786Z,20.00
2019-06-15T07:26:58.742Z,20.02
2019-06-15T07:28:07.899Z,20.18
2019-06-15T07:28:58.660Z,20.22
2019-06-15T07:29:58.601Z,20.25
2019-06-15T07:30:58.554Z,20.28
2019-06-15T07:31:58.509Z,20.26
2019-06-15T07:32:58.541Z,20.32
2019-06-15T07:33:58.422Z,20.34
2019-06-15T07:34:58.390Z,20.29
2019-06-15T07:35:58.323Z,20.44
2019-06-15T07:37:01.477Z,20.44
2019-06-15T07:37:58.265Z,20.56
2019-06-15T07:38:58.186Z,20.59
2019-06-15T07:39:58.137Z,20.59
2019-06-15T07:40:58.098Z,20.67
2019-06-15T07:41:58.048Z,20.67
2019-06-15T07:42:58.036Z,20.72
2019-06-15T07:43:57.956Z,20.80
2019-06-15T07:44:57.940Z,20.87
2019-06-15T07:45:57.864Z,21.00
2019-06-15T07:46:57.891Z,21.14
2019-06-15T07:47:57.781Z,21.32
2019-06-15T07:48:57.732Z,21.35
2019-06-15T07:49:57.689Z,21.43
2019-06-15T07:50:57.643Z,21.14
2019-06-15T07:51:57.627Z,21.15
2019-06-15T07:52:57.545Z,21.21
2019-06-15T07:53:57.531Z,21.22
2019-06-15T07:54:57.457Z,21.22
2019-06-15T07:55:57.409Z,21.20
2019-06-15T07:56:57.366Z,21.20
2019-06-15T07:57:57.321Z,21.12
2019-06-15T07:58:57.314Z,21.14
2019-06-15T07:59:57.228Z,21.15
2019-06-15T08:00:57.185Z,21.27
2019-06-15T08:01:57.140Z,21.35
2019-06-15T08:02:57.094Z,21.40
2019-06-15T08:03:57.387Z,21.37
2019-06-15T08:04:57.007Z,21.57
2019-06-15T08:05:56.961Z,21.51
2019-06-15T08:06:56.916Z,21.50
2019-06-15T08:07:56.875Z,21.72
2019-06-15T08:08:56.864Z,21.64
2019-06-15T08:09:56.785Z,21.76
2019-06-15T08:10:56.761Z,21.76
2019-06-15T08:11:56.722Z,21.95
2019-06-15T08:12:56.651Z,21.95
2019-06-15T08:13:56.603Z,21.91
2019-06-15T08:14:56.595Z,21.92
2019-06-15T08:15:56.575Z,21.95
2019-06-15T08:16:56.470Z,21.95
2019-06-15T08:17:56.427Z,21.98
2019-06-15T08:18:56.381Z,22.00
2019-06-15T08:19:56.373Z,22.02
2019-06-15T08:20:56.294Z,22.00
2019-06-15T08:21:56.248Z,22.07
2019-06-15T08:22:56.228Z,22.13
2019-06-15T08:23:56.161Z,22.26
2019-06-15T08:24:56.118Z,22.23
2019-06-15T08:25:56.076Z,22.23
2019-06-15T08:26:56.036Z,22.28
2019-06-15T08:27:56.021Z,22.18
2019-06-15T08:28:55.985Z,22.11
2019-06-15T08:29:55.899Z,22.06
2019-06-15T08:30:55.855Z,21.89
2019-06-15T08:31:55.875Z,21.99
2019-06-15T08:32:55.768Z,22.13
2019-06-15T08:33:55.754Z,22.26
2019-06-15T08:34:55.698Z,22.41
2019-06-15T08:35:55.689Z,22.53
2019-06-15T08:36:55.621Z,22.50
2019-06-15T08:37:55.552Z,22.72
2019-06-15T08:38:55.532Z,22.81
2019-06-15T08:39:55.467Z,22.81
2019-06-15T08:40:55.421Z,22.63
2019-06-15T08:41:56.975Z,22.54
2019-06-15T08:42:55.330Z,22.66
2019-06-15T08:43:55.349Z,22.65
2019-06-15T08:44:55.243Z,22.68
2019-06-15T08:45:55.200Z,22.69
2019-06-15T08:46:55.213Z,22.91
2019-06-15T08:47:55.117Z,23.06
2019-06-15T08:48:55.118Z,22.87
2019-06-15T08:49:55.040Z,22.80
2019-06-15T08:50:54.984Z,22.63
2019-06-15T08:51:54.938Z,22.57
2019-06-15T08:52:54.895Z,22.38
2019-06-15T08:53:54.888Z,22.25
2019-06-15T08:54:54.813Z,22.08
2019-06-15T08:55:54.770Z,22.07
2019-06-15T08:56:54.722Z,22.14
2019-06-15T08:57:54.710Z,22.02
2019-06-15T08:58:55.687Z,22.07
2019-06-15T08:59:54.590Z,21.96
2019-06-15T09:00:54.563Z,21.64
2019-06-15T09:01:54.506Z,21.64
2019-06-15T09:02:54.514Z,21.66
2019-06-15T09:03:54.435Z,21.54
2019-06-15T09:04:54.376Z,21.72
2019-06-15T09:05:54.331Z,21.58
2019-06-15T09:06:54.285Z,21.67
2019-06-15T09:07:54.277Z,21.73
2019-06-15T09:08:54.197Z,21.62
2019-06-15T09:09:54.153Z,21.67
2019-06-15T09:10:54.140Z,21.67
2019-06-15T09:11:54.090Z,21.64
2019-06-15T09:12:54.023Z,21.69
2019-06-15T09:13:53.980Z,21.64
2019-06-15T09:14:53.934Z,21.75
2019-06-15T09:15:53.888Z,21.69
2019-06-15T09:16:53.877Z,21.70
2019-06-15T09:17:53.804Z,21.70
2019-06-15T09:18:56.686Z,21.57
2019-06-15T09:19:53.713Z,21.33
2019-06-15T09:20:53.702Z,21.24
2019-06-15T09:21:53.623Z,21.11
2019-06-15T09:22:53.616Z,21.22
2019-06-15T09:23:53.536Z,21.14
2019-06-15T09:24:53.494Z,21.05
2019-06-15T09:25:53.481Z,20.97
2019-06-15T09:26:53.403Z,21.03
2019-06-15T09:27:53.362Z,20.99
2019-06-15T09:28:53.313Z,21.06
2019-06-15T09:29:53.269Z,21.03
2019-06-15T09:30:53.281Z,21.09
2019-06-15T09:31:53.181Z,21.03
2019-06-15T09:32:53.140Z,21.11
2019-06-15T09:33:53.096Z,21.03
2019-06-15T09:34:53.054Z,20.95
2019-06-15T09:35:53.036Z,20.85
2019-06-15T09:36:52.956Z,20.74
2019-06-15T09:37:52.912Z,20.69
2019-06-15T09:38:52.882Z,20.60
2019-06-15T09:39:52.821Z,20.60
2019-06-15T09:40:52.803Z,20.58
2019-06-15T09:41:52.739Z,20.69
2019-06-15T09:42:52.761Z,20.55
2019-06-15T09:43:52.644Z,20.52
2019-06-15T09:44:52.610Z,20.62
2019-06-15T09:45:52.596Z,20.59
2019-06-15T09:46:52.509Z,20.77
2019-06-15T09:47:52.465Z,20.85
2019-06-15T09:48:52.421Z,20.78
2019-06-15T09:49:52.418Z,20.77
2019-06-15T09:50:52.340Z,20.74
2019-06-15T09:51:52.311Z,20.72
2019-06-15T09:52:52.243Z,20.69
2019-06-15T09:53:52.194Z,20.77
2019-06-15T09:54:52.189Z,20.75
2019-06-15T09:55:52.103Z,20.72
2019-06-15T09:56:52.060Z,20.66
2019-06-15T09:57:52.017Z,20.74
2019-06-15T09:58:51.970Z,20.74
2019-06-15T09:59:51.953Z,20.85
2019-06-15T10:00:51.912Z,20.92
2019-06-15T10:01:51.834Z,20.88
2019-06-15T10:02:51.824Z,20.90
2019-06-15T10:03:51.744Z,20.87
2019-06-15T10:04:51.697Z,20.81
2019-06-15T10:05:51.682Z,20.82
2019-06-15T10:06:51.608Z,20.82
2019-06-15T10:07:51.562Z,20.77
2019-06-15T10:08:51.519Z,20.74
2019-06-15T10:09:51.475Z,20.80
2019-06-15T10:10:51.457Z,20.84
2019-06-15T10:11:51.385Z,20.90
2019-06-15T10:12:51.340Z,21.06
2019-06-15T10:13:51.309Z,21.05
2019-06-15T10:14:51.279Z,21.12
2019-06-15T10:15:51.201Z,21.25
2019-06-15T10:16:51.207Z,21.27
2019-06-15T10:17:51.112Z,21.27
2019-06-15T10:18:51.066Z,21.37
2019-06-15T10:19:51.026Z,21.24
2019-06-15T10:20:50.976Z,21.25
2019-06-15T10:21:50.974Z,21.29
2019-06-15T10:22:50.942Z,21.32
2019-06-15T10:23:50.847Z,21.27
2019-06-15T10:24:50.799Z,21.21
2019-06-15T10:25:53.992Z,21.29
2019-06-15T10:26:50.750Z,21.32
2019-06-15T10:27:50.660Z,21.25
2019-06-15T10:28:50.650Z,21.35
2019-06-15T10:29:50.574Z,21.40
2019-06-15T10:30:50.527Z,21.39
2019-06-15T10:31:50.484Z,21.37
2019-06-15T10:32:50.438Z,21.35
2019-06-15T10:33:50.482Z,21.69
2019-06-15T10:34:50.350Z,21.98
2019-06-15T10:35:50.313Z,22.11
2019-06-15T10:36:50.259Z,22.26
2019-06-15T10:37:50.217Z,22.13
2019-06-15T10:38:50.219Z,22.23
2019-06-15T10:39:50.127Z,22.28
2019-06-15T10:40:50.083Z,22.33
2019-06-15T10:41:50.040Z,22.22
2019-06-15T10:42:49.992Z,22.14
2019-06-15T10:43:49.978Z,22.17
2019-06-15T10:44:49.907Z,22.10
2019-06-15T10:45:49.891Z,22.25
2019-06-15T10:46:49.845Z,22.48
2019-06-15T10:47:49.781Z,22.76
2019-06-15T10:48:49.731Z,22.69
2019-06-15T10:49:49.685Z,22.70
2019-06-15T10:50:49.641Z,22.72
2019-06-15T10:51:49.629Z,22.68
2019-06-15T10:52:49.550Z,22.63
2019-06-15T10:53:49.512Z,22.63
2019-06-15T10:54:49.464Z,22.51
2019-06-15T10:55:49.423Z,22.85
2019-06-15T10:56:49.405Z,22.80
2019-06-15T10:57:49.330Z,22.60
2019-06-15T10:58:49.290Z,22.44
2019-06-15T10:59:57.176Z,22.30
2019-06-15T11:00:49.201Z,22.25
2019-06-15T11:01:49.161Z,22.28
2019-06-15T11:02:49.114Z,22.22
2019-06-15T11:03:49.067Z,22.15
2019-06-15T11:04:49.065Z,22.14
2019-06-15T11:05:49.013Z,22.22
2019-06-15T11:06:48.935Z,22.22
2019-06-15T11:07:48.893Z,22.32
2019-06-15T11:08:48.880Z,22.25
2019-06-15T11:09:48.806Z,22.29
2019-06-15T11:10:48.764Z,22.26
2019-06-15T11:11:48.714Z,22.23
2019-06-15T11:12:48.672Z,22.30
2019-06-15T11:13:48.653Z,22.30
2019-06-15T11:14:48.587Z,22.36
2019-06-15T11:15:48.541Z,22.54
2019-06-15T11:16:48.501Z,22.55
2019-06-15T11:17:48.455Z,22.66
2019-06-15T11:18:48.436Z,22.51
2019-06-15T11:19:48.367Z,22.62
2019-06-15T11:20:48.322Z,22.99
2019-06-15T11:21:48.279Z,23.20
2019-06-15T11:22:48.267Z,23.46
2019-06-15T11:23:48.197Z,23.76
2019-06-15T11:24:48.181Z,24.14
2019-06-15T11:25:48.111Z,24.18
2019-06-15T11:26:48.095Z,24.10
2019-06-15T11:27:48.019Z,23.87
2019-06-15T11:28:47.979Z,23.99
2019-06-15T11:29:47.935Z,24.11
2019-06-15T11:30:47.892Z,24.16
2019-06-15T11:31:47.880Z,24.16
2019-06-15T11:32:47.822Z,23.88
2019-06-15T11:33:47.786Z,23.80
2019-06-15T11:34:47.719Z,24.03
2019-06-15T11:35:47.681Z,24.13
2019-06-15T11:36:47.642Z,23.80
2019-06-15T11:37:47.628Z,23.86
2019-06-15T11:38:47.555Z,23.84
2019-06-15T11:39:47.508Z,23.88
2019-06-15T11:40:47.465Z,23.93
2019-06-15T11:41:47.422Z,24.13
2019-06-15T11:42:49.740Z,24.24
2019-06-15T11:43:47.343Z,24.14
2019-06-15T11:44:47.299Z,23.99
2019-06-15T11:45:47.256Z,23.81
2019-06-15T11:46:47.236Z,23.61
2019-06-15T11:47:47.170Z,23.62
2019-06-15T11:48:47.129Z,23.95
2019-06-15T11:49:47.094Z,24.20
2019-06-15T11:50:47.043Z,24.03
2019-06-15T11:51:47.030Z,24.10
2019-06-15T11:52:46.961Z,24.03
2019-06-15T11:53:46.919Z,23.95
2019-06-15T11:54:46.876Z,23.88
2019-06-15T11:55:46.831Z,23.74
2019-06-15T11:56:46.841Z,23.62
2019-06-15T11:57:46.749Z,23.77
2019-06-15T11:58:46.711Z,23.95
2019-06-15T11:59:46.664Z,24.24
2019-06-15T12:00:46.619Z,24.39
2019-06-15T12:01:46.613Z,24.55
2019-06-15T12:02:46.568Z,24.65
2019-06-15T12:03:46.493Z,24.89
2019-06-15T12:04:58.129Z,25.01
2019-06-15T12:05:46.413Z,25.25
2019-06-15T12:06:46.400Z,25.51
2019-06-15T12:07:46.327Z,25.55
2019-06-15T12:08:46.286Z,25.62
2019-06-15T12:09:46.242Z,25.69
2019-06-15T12:10:46.237Z,25.87
2019-06-15T12:11:46.160Z,25.88
2019-06-15T12:12:46.118Z,25.78
2019-06-15T12:13:46.080Z,25.63
2019-06-15T12:14:46.076Z,25.35
2019-06-15T12:15:45.994Z,25.14
2019-06-15T12:16:45.987Z,24.78
2019-06-15T12:17:45.910Z,24.33
2019-06-15T12:18:45.875Z,24.36
2019-06-15T12:19:45.836Z,24.32
2019-06-15T12:20:45.826Z,24.35
2019-06-15T12:21:45.749Z,24.45
2019-06-15T12:22:45.725Z,24.51
2019-06-15T12:23:45.669Z,24.61
2019-06-15T12:24:45.624Z,24.78
2019-06-15T12:25:45.634Z,24.95
2019-06-15T12:26:45.541Z,24.74
2019-06-15T12:27:45.499Z,24.60
2019-06-15T12:28:45.457Z,24.74
2019-06-15T12:29:45.421Z,24.70
2019-06-15T12:30:47.771Z,24.66
2019-06-15T12:31:45.333Z,24.53
2019-06-15T12:32:45.293Z,24.65
2019-06-15T12:33:45.251Z,24.40
2019-06-15T12:34:45.244Z,24.28
2019-06-15T12:35:45.181Z,24.32
2019-06-15T12:36:45.158Z,24.54
2019-06-15T12:37:45.085Z,24.58
2019-06-15T12:38:45.044Z,24.61
2019-06-15T12:39:45.006Z,24.50
2019-06-15T12:40:44.963Z,24.53
2019-06-15T12:41:44.954Z,24.74
2019-06-15T12:42:44.883Z,24.58
2019-06-15T12:43:44.843Z,24.47
2019-06-15T12:44:44.809Z,24.51
2019-06-15T12:45:44.760Z,24.61
2019-06-15T12:46:44.747Z,24.73
2019-06-15T12:47:44.672Z,24.93
2019-06-15T12:48:44.633Z,24.91
2019-06-15T12:49:44.591Z,24.93
2019-06-15T12:50:44.553Z,24.96
2019-06-15T12:51:44.537Z,25.04